Beaver, Louisiana
Current Conditions -  °F | °C
As of 7:35 AM on Wednesday 22 Oct 2014 (Local Time) from KACP Reporting Station
Haze Haze  
Wind Chill: 54°   Ceiling: 700
Heat Index: 54°   Visibility: 1.5mi
Dew Point: 52°   Wind: 0mph
Humidity: 95%   Direction: NA
Pressure: 30.09"   Gusts: NA
Location:  30.8164°N, 92.6914°W
Report Text: KACP 221235Z AUTO 00000KT 1 1/2SM BR VV007 12/11 A3009 RMK AO2 T01200112
Loading
Personal Weather Stations






























Interactive Weather Map
Tropical Storm Tracking
New forecast layout! Learn more

10-Day Weather Forecast

Advertisements
Track Severe Weather on mobile